createdAt,value
2023-03-25T00:00:17.581Z,3.95
2023-03-25T00:03:04.609Z,4.50
2023-03-25T00:05:50.519Z,4.43
2023-03-25T00:08:37.523Z,4.32
2023-03-25T00:11:23.689Z,4.18
2023-03-25T00:14:12.305Z,4.63
2023-03-25T00:16:58.979Z,4.50
2023-03-25T00:19:45.065Z,4.63
2023-03-25T00:22:30.978Z,5.07
2023-03-25T00:25:19.214Z,5.00
2023-03-25T00:28:05.437Z,5.60
2023-03-25T00:30:53.545Z,5.22
2023-03-25T00:33:41.849Z,5.47
2023-03-25T00:36:27.684Z,5.43
2023-03-25T00:39:13.786Z,6.50
2023-03-25T00:42:02.031Z,6.03
2023-03-25T00:44:50.795Z,6.60
2023-03-25T00:47:36.969Z,6.90
2023-03-25T00:50:42.076Z,4.70
2023-03-25T00:53:28.109Z,4.88
2023-03-25T00:56:14.526Z,5.30
2023-03-25T00:59:00.436Z,5.22
2023-03-25T01:01:48.882Z,4.68
2023-03-25T01:04:35.475Z,5.00
2023-03-25T01:07:24.390Z,4.85
2023-03-25T01:10:11.696Z,4.50
2023-03-25T01:12:57.787Z,4.35
2023-03-25T01:15:43.500Z,4.30
2023-03-25T01:18:29.460Z,3.83
2023-03-25T01:21:15.905Z,4.15
2023-03-25T01:24:02.382Z,3.90
2023-03-25T01:26:48.599Z,3.60
2023-03-25T01:29:34.244Z,4.55
2023-03-25T01:32:19.825Z,4.30
2023-03-25T01:35:06.496Z,4.07
2023-03-25T01:37:54.779Z,3.95
2023-03-25T01:40:40.876Z,4.57
2023-03-25T01:43:27.081Z,3.92
2023-03-25T01:46:17.303Z,4.20
2023-03-25T01:49:08.400Z,3.70
2023-03-25T01:51:58.652Z,4.18
2023-03-25T01:54:45.787Z,4.30
2023-03-25T01:57:32.477Z,4.18
2023-03-25T02:00:27.383Z,4.20
2023-03-25T02:03:21.773Z,4.47
2023-03-25T02:06:16.223Z,3.97
2023-03-25T02:09:05.279Z,4.13
2023-03-25T02:11:54.844Z,4.20
2023-03-25T02:14:41.356Z,3.95
2023-03-25T02:18:01.484Z,3.75
2023-03-25T02:21:03.967Z,3.55
2023-03-25T02:23:58.417Z,3.78
2023-03-25T02:27:27.671Z,3.97
2023-03-25T02:30:38.958Z,3.60
2023-03-25T02:33:41.623Z,4.05
2023-03-25T02:36:34.650Z,4.05
2023-03-25T02:39:49.595Z,3.90
2023-03-25T02:42:46.013Z,4.18
2023-03-25T02:45:34.284Z,3.58
2023-03-25T02:48:33.340Z,3.70
2023-03-25T02:51:24.792Z,3.80
2023-03-25T02:54:13.342Z,4.43
2023-03-25T02:57:00.714Z,4.05
2023-03-25T02:59:49.160Z,3.88
2023-03-25T03:02:35.229Z,3.78
2023-03-25T03:05:24.533Z,4.15
2023-03-25T03:08:29.630Z,3.63
2023-03-25T03:11:17.650Z,3.33
2023-03-25T03:14:30.991Z,2.95
2023-03-25T03:17:51.218Z,3.60
2023-03-25T03:21:08.449Z,3.50
2023-03-25T03:23:57.714Z,3.25
2023-03-25T03:27:00.725Z,3.85
2023-03-25T03:29:49.152Z,3.78
2023-03-25T03:33:04.460Z,3.00
2023-03-25T03:35:57.743Z,3.30
2023-03-25T03:38:48.110Z,3.00
2023-03-25T03:41:37.985Z,3.38
2023-03-25T03:44:29.952Z,3.13
2023-03-25T03:47:19.906Z,3.08
2023-03-25T03:50:09.446Z,3.30
2023-03-25T03:53:11.107Z,3.65
2023-03-25T03:56:09.580Z,3.47
2023-03-25T03:58:59.510Z,3.35
2023-03-25T04:01:48.071Z,3.45
2023-03-25T04:04:35.020Z,3.67
2023-03-25T04:07:38.879Z,3.50
2023-03-25T04:10:40.236Z,3.65
2023-03-25T04:13:34.357Z,3.65
2023-03-25T04:16:20.364Z,3.60
2023-03-25T04:19:06.619Z,4.15
2023-03-25T04:21:52.572Z,3.58
2023-03-25T04:24:41.713Z,3.78
2023-03-25T04:27:29.824Z,4.65
2023-03-25T04:30:19.534Z,4.45
2023-03-25T04:33:06.346Z,3.70
2023-03-25T04:35:53.086Z,3.47
2023-03-25T04:38:40.758Z,3.50
2023-03-25T04:41:28.843Z,3.65
2023-03-25T04:44:14.975Z,5.00
2023-03-25T04:47:01.986Z,4.53
2023-03-25T04:49:48.145Z,4.78
2023-03-25T04:52:34.629Z,4.60
2023-03-25T04:55:21.395Z,5.07
2023-03-25T04:58:07.715Z,5.50
2023-03-25T05:00:54.103Z,4.55
2023-03-25T05:03:40.258Z,4.65
2023-03-25T05:06:26.383Z,5.90
2023-03-25T05:09:15.771Z,4.60
2023-03-25T05:12:01.811Z,4.85
2023-03-25T05:14:47.583Z,4.20
2023-03-25T05:17:33.365Z,4.43
2023-03-25T05:20:19.118Z,3.95
2023-03-25T05:23:05.613Z,3.15
2023-03-25T05:25:51.828Z,3.72
2023-03-25T05:28:38.514Z,3.92
2023-03-25T05:31:24.502Z,4.40
2023-03-25T05:34:10.174Z,4.47
2023-03-25T05:36:58.198Z,4.00
2023-03-25T05:39:45.721Z,4.80
2023-03-25T05:42:33.251Z,4.35
2023-03-25T05:45:19.250Z,4.20
2023-03-25T05:48:05.445Z,4.90
2023-03-25T05:50:51.222Z,3.90
2023-03-25T05:53:37.686Z,4.70
2023-03-25T05:56:24.405Z,3.88
2023-03-25T05:59:10.701Z,4.18
2023-03-25T06:01:56.558Z,4.20
2023-03-25T06:04:42.902Z,4.65
2023-03-25T06:07:28.488Z,3.97
2023-03-25T06:10:18.058Z,3.97
2023-03-25T06:13:03.962Z,4.05
2023-03-25T06:15:49.890Z,3.67
2023-03-25T06:18:37.027Z,4.30
2023-03-25T06:21:23.979Z,6.18
2023-03-25T06:24:09.710Z,7.45
2023-03-25T06:26:55.374Z,5.15
2023-03-25T06:29:43.801Z,6.18
2023-03-25T06:32:30.964Z,8.13
2023-03-25T06:35:19.860Z,8.13
2023-03-25T06:38:05.808Z,7.63
2023-03-25T06:41:07.958Z,8.75
2023-03-25T06:43:53.854Z,8.80
2023-03-25T06:47:02.522Z,9.10
2023-03-25T06:50:09.002Z,9.02
2023-03-25T06:52:54.601Z,9.98
2023-03-25T06:55:41.350Z,11.52
2023-03-25T06:58:34.834Z,9.55
2023-03-25T07:01:21.923Z,9.85
2023-03-25T07:04:07.520Z,8.63
2023-03-25T07:06:54.669Z,8.82
2023-03-25T07:09:41.704Z,8.20
2023-03-25T07:12:27.388Z,7.60
2023-03-25T07:15:13.203Z,7.57
2023-03-25T07:18:01.270Z,8.00
2023-03-25T07:20:46.957Z,6.88
2023-03-25T07:23:32.683Z,6.80
2023-03-25T07:26:18.557Z,6.35
2023-03-25T07:29:04.405Z,4.80
2023-03-25T07:31:50.121Z,4.55
2023-03-25T07:34:36.244Z,3.45
2023-03-25T07:37:22.131Z,3.70
2023-03-25T07:40:08.479Z,3.60
2023-03-25T07:42:54.319Z,5.07
2023-03-25T07:45:43.731Z,6.85
2023-03-25T07:48:30.479Z,10.10
2023-03-25T07:51:16.453Z,12.90
2023-03-25T07:54:05.513Z,10.57
2023-03-25T07:56:52.931Z,14.65
2023-03-25T07:59:39.416Z,10.70
2023-03-25T08:02:25.332Z,11.57
2023-03-25T08:05:11.049Z,14.00
2023-03-25T08:08:00.355Z,14.43
2023-03-25T08:10:48.197Z,12.90
2023-03-25T08:13:34.113Z,13.05
2023-03-25T08:16:19.678Z,12.90
2023-03-25T08:19:05.371Z,11.57
2023-03-25T08:22:03.627Z,11.32
2023-03-25T08:24:50.436Z,10.63
2023-03-25T08:27:37.051Z,8.25
2023-03-25T08:30:26.189Z,7.43
2023-03-25T08:33:11.937Z,6.78
2023-03-25T08:35:57.988Z,6.82
2023-03-25T08:38:43.714Z,7.78
2023-03-25T08:41:29.366Z,8.20
2023-03-25T08:44:15.474Z,6.30
2023-03-25T08:47:01.575Z,5.80
2023-03-25T08:49:47.402Z,6.35
2023-03-25T08:52:33.055Z,4.25
2023-03-25T08:55:18.721Z,4.88
2023-03-25T08:58:06.367Z,4.38
2023-03-25T09:00:55.736Z,5.03
2023-03-25T09:03:42.287Z,4.95
2023-03-25T09:06:28.174Z,4.43
2023-03-25T09:09:13.751Z,4.47
2023-03-25T09:11:59.722Z,3.50
2023-03-25T09:14:45.944Z,3.13
2023-03-25T09:17:31.974Z,4.05
2023-03-25T09:20:18.769Z,4.43
2023-03-25T09:23:04.518Z,3.47
2023-03-25T09:25:50.389Z,4.70
2023-03-25T09:28:36.402Z,5.57
2023-03-25T09:31:23.422Z,3.42
2023-03-25T09:34:09.368Z,3.17
2023-03-25T09:36:55.818Z,4.13
2023-03-25T09:39:41.680Z,3.65
2023-03-25T09:42:41.629Z,21.35
2023-03-25T09:45:37.265Z,5.68
2023-03-25T09:48:40.531Z,3.40
2023-03-25T09:51:36.616Z,4.50
2023-03-25T09:54:28.856Z,6.80
2023-03-25T09:57:18.667Z,34.13
2023-03-25T10:00:07.119Z,4.70
2023-03-25T10:03:33.108Z,4.00
2023-03-25T10:06:20.903Z,3.47
2023-03-25T10:09:12.935Z,3.50
2023-03-25T10:12:23.557Z,2.83
2023-03-25T10:15:18.213Z,3.70
2023-03-25T10:18:33.997Z,4.20
2023-03-25T10:21:50.339Z,3.67
2023-03-25T10:24:51.990Z,3.10
2023-03-25T10:27:49.628Z,2.40
2023-03-25T10:30:41.794Z,3.00
2023-03-25T10:33:42.434Z,3.92
2023-03-25T10:36:38.318Z,4.00
2023-03-25T10:39:25.572Z,4.35
2023-03-25T10:42:30.666Z,4.93
2023-03-25T10:45:18.297Z,3.40
2023-03-25T10:48:14.883Z,3.25
2023-03-25T10:51:08.489Z,2.80
2023-03-25T10:53:55.430Z,2.50
2023-03-25T10:56:45.704Z,2.33
2023-03-25T10:59:38.235Z,2.70
2023-03-25T11:02:26.109Z,2.40
2023-03-25T11:05:15.946Z,3.63
2023-03-25T11:08:14.965Z,3.78
2023-03-25T11:11:08.554Z,2.80
2023-03-25T11:13:57.500Z,3.30
2023-03-25T11:16:47.468Z,3.00
2023-03-25T11:19:39.773Z,2.30
2023-03-25T11:22:30.940Z,3.00
2023-03-25T11:25:25.930Z,4.38
2023-03-25T11:28:16.523Z,3.00
2023-03-25T11:31:16.667Z,3.33
2023-03-25T11:34:21.827Z,2.90
2023-03-25T11:37:19.002Z,2.30
2023-03-25T11:40:06.785Z,2.60
2023-03-25T11:43:00.473Z,2.45
2023-03-25T11:45:46.796Z,2.40
2023-03-25T11:48:37.336Z,2.60
2023-03-25T11:51:26.122Z,3.60
2023-03-25T11:54:14.763Z,4.90
2023-03-25T11:57:04.354Z,4.10
2023-03-25T12:00:01.118Z,4.75
2023-03-25T12:02:47.171Z,3.92
2023-03-25T12:05:34.120Z,4.65
2023-03-25T12:08:22.763Z,3.58
2023-03-25T12:11:16.925Z,4.13
2023-03-25T12:14:10.220Z,3.60
2023-03-25T12:17:18.235Z,2.17
2023-03-25T12:20:22.605Z,2.85
2023-03-25T12:23:28.894Z,3.13
2023-03-25T12:26:19.587Z,2.03
2023-03-25T12:29:32.685Z,2.38
2023-03-25T12:32:53.635Z,2.90
2023-03-25T12:35:49.975Z,3.70
2023-03-25T12:39:00.346Z,7.68
2023-03-25T12:42:13.309Z,3.22
2023-03-25T12:45:10.139Z,3.20
2023-03-25T12:48:09.835Z,3.13
2023-03-25T12:51:01.877Z,2.63
2023-03-25T12:54:17.186Z,2.88
2023-03-25T12:57:06.170Z,2.50
2023-03-25T13:00:09.340Z,2.90
2023-03-25T13:03:40.317Z,2.83
2023-03-25T13:06:43.924Z,3.60
2023-03-25T13:09:30.109Z,4.15
2023-03-25T13:12:49.745Z,3.67
2023-03-25T13:15:35.694Z,2.60
2023-03-25T13:18:26.348Z,3.45
2023-03-25T13:21:33.229Z,2.90
2023-03-25T13:24:25.142Z,3.05
2023-03-25T13:27:12.992Z,2.45
2023-03-25T13:30:00.414Z,3.13
2023-03-25T13:32:50.629Z,2.80
2023-03-25T13:35:42.008Z,3.25
2023-03-25T13:38:58.264Z,2.97
2023-03-25T13:41:51.795Z,3.63
2023-03-25T13:44:40.320Z,3.50
2023-03-25T13:47:37.582Z,3.60
2023-03-25T13:50:29.119Z,2.83
2023-03-25T13:53:38.219Z,3.58
2023-03-25T13:56:27.351Z,3.25
2023-03-25T13:59:28.268Z,3.40
2023-03-25T14:02:52.431Z,2.78
2023-03-25T14:06:07.956Z,2.93
2023-03-25T14:09:18.104Z,2.83
2023-03-25T14:12:09.801Z,11.05
2023-03-25T14:15:06.763Z,5.15
2023-03-25T14:17:54.506Z,6.00
2023-03-25T14:20:41.845Z,3.80
2023-03-25T14:23:31.303Z,3.75
2023-03-25T14:26:18.127Z,3.88
2023-03-25T14:29:10.045Z,3.88
2023-03-25T14:32:02.102Z,3.60
2023-03-25T14:34:51.900Z,3.67
2023-03-25T14:37:41.963Z,4.65
2023-03-25T14:40:50.812Z,3.63
2023-03-25T14:43:53.984Z,11.10
2023-03-25T14:46:46.434Z,7.18
2023-03-25T14:50:04.999Z,6.82
2023-03-25T14:52:56.445Z,6.25
2023-03-25T14:55:45.266Z,4.68
2023-03-25T14:58:31.853Z,4.90
2023-03-25T15:01:20.835Z,6.30
2023-03-25T15:04:19.320Z,7.07
2023-03-25T15:07:11.651Z,6.90
2023-03-25T15:09:59.242Z,8.10
2023-03-25T15:12:53.093Z,13.32
2023-03-25T15:18:37.587Z,5.18
2023-03-25T15:21:24.682Z,8.30
2023-03-25T15:24:12.150Z,7.07
2023-03-25T15:27:04.447Z,5.50
2023-03-25T15:30:12.443Z,5.60
2023-03-25T15:32:58.543Z,4.40
2023-03-25T15:36:16.021Z,5.20
2023-03-25T15:39:40.534Z,4.97
2023-03-25T15:48:27.566Z,3.75
2023-03-25T15:51:16.668Z,3.83
2023-03-25T15:54:17.901Z,3.10
2023-03-25T15:57:14.399Z,2.88
2023-03-25T16:00:13.701Z,3.58
2023-03-25T16:03:08.629Z,6.30
2023-03-25T16:05:59.659Z,8.07
2023-03-25T16:08:47.330Z,9.30
2023-03-25T16:11:33.141Z,4.85
2023-03-25T16:14:22.364Z,6.20
2023-03-25T16:17:09.014Z,5.85
2023-03-25T16:19:56.471Z,7.40
2023-03-25T16:22:44.045Z,6.03
2023-03-25T16:25:38.436Z,5.28
2023-03-25T16:28:44.966Z,4.25
2023-03-25T16:31:34.947Z,4.35
2023-03-25T16:34:21.517Z,4.47
2023-03-25T16:37:07.976Z,5.18
2023-03-25T16:39:55.693Z,4.93
2023-03-25T16:42:41.511Z,5.85
2023-03-25T16:45:27.196Z,4.95
2023-03-25T16:48:27.106Z,5.63
2023-03-25T16:51:22.041Z,6.05
2023-03-25T16:54:13.311Z,6.43
2023-03-25T16:57:01.077Z,5.43
2023-03-25T16:59:47.920Z,6.88
2023-03-25T17:02:42.969Z,7.38
2023-03-25T17:05:30.048Z,6.43
2023-03-25T17:08:18.402Z,5.82
2023-03-25T17:11:04.409Z,5.82
2023-03-25T17:13:52.733Z,5.80
2023-03-25T17:16:38.842Z,5.55
2023-03-25T17:19:26.794Z,5.90
2023-03-25T17:22:16.620Z,5.50
2023-03-25T17:25:27.510Z,6.13
2023-03-25T17:28:58.172Z,7.03
2023-03-25T17:31:43.949Z,6.35
2023-03-25T17:34:32.234Z,5.47
2023-03-25T17:37:19.181Z,5.55
2023-03-25T17:40:11.676Z,5.93
2023-03-25T17:42:58.859Z,5.78
2023-03-25T17:45:47.057Z,6.10
2023-03-25T17:48:33.309Z,6.07
2023-03-25T17:51:20.760Z,6.18
2023-03-25T17:54:06.719Z,7.20
2023-03-25T17:56:52.908Z,7.00
2023-03-25T17:59:38.757Z,7.65
2023-03-25T18:02:24.560Z,7.28
2023-03-25T18:05:11.055Z,23.80
2023-03-25T18:07:58.370Z,44.03
2023-03-25T18:10:44.278Z,21.17
2023-03-25T18:13:30.036Z,16.02
2023-03-25T18:16:16.816Z,13.38
2023-03-25T18:19:02.895Z,9.32
2023-03-25T18:21:48.948Z,9.13
2023-03-25T18:24:35.068Z,7.55
2023-03-25T18:27:25.579Z,7.97
2023-03-25T18:30:39.168Z,7.82
2023-03-25T18:33:25.601Z,7.78
2023-03-25T18:36:11.968Z,9.43
2023-03-25T18:38:57.869Z,8.00
2023-03-25T18:41:44.172Z,7.82
2023-03-25T18:44:30.920Z,7.70
2023-03-25T18:47:17.098Z,8.05
2023-03-25T18:50:13.109Z,6.97
2023-03-25T18:52:59.737Z,7.20
2023-03-25T18:55:46.586Z,7.40
2023-03-25T18:58:34.022Z,7.07
2023-03-25T19:01:21.924Z,6.55
2023-03-25T19:04:09.286Z,6.65
2023-03-25T19:06:55.883Z,7.35
2023-03-25T19:09:41.655Z,7.10
2023-03-25T19:12:27.366Z,7.50
2023-03-25T19:15:15.758Z,7.85
2023-03-25T19:18:02.008Z,6.38
2023-03-25T19:20:49.686Z,7.10
2023-03-25T19:23:36.446Z,6.45
2023-03-25T19:26:22.229Z,6.40
2023-03-25T19:29:08.780Z,6.97
2023-03-25T19:31:54.939Z,6.60
2023-03-25T19:34:40.430Z,6.68
2023-03-25T19:37:30.510Z,6.78
2023-03-25T19:40:18.916Z,7.05
2023-03-25T19:43:07.864Z,7.30
2023-03-25T19:45:57.753Z,8.40
2023-03-25T19:48:43.873Z,8.65
2023-03-25T19:51:29.814Z,11.93
2023-03-25T19:54:15.529Z,10.90
2023-03-25T19:57:01.577Z,11.15
2023-03-25T19:59:48.279Z,11.43
2023-03-25T20:02:34.353Z,10.90
2023-03-25T20:05:21.803Z,11.57
2023-03-25T20:08:09.503Z,10.13
2023-03-25T20:10:55.352Z,9.18
2023-03-25T20:13:41.309Z,13.57
2023-03-25T20:16:28.405Z,8.43
2023-03-25T20:19:14.230Z,7.50
2023-03-25T20:22:00.621Z,7.45
2023-03-25T20:24:46.491Z,8.88
2023-03-25T20:27:32.522Z,9.10
2023-03-25T20:30:19.675Z,9.02
2023-03-25T20:33:05.653Z,9.52
2023-03-25T20:35:52.050Z,12.23
2023-03-25T20:38:42.006Z,10.73
2023-03-25T20:41:36.885Z,9.48
2023-03-25T20:44:22.949Z,18.52
2023-03-25T20:47:09.459Z,9.07
2023-03-25T20:49:56.191Z,7.85
2023-03-25T20:52:43.836Z,9.85
2023-03-25T20:55:29.562Z,14.63
2023-03-25T20:58:15.977Z,8.30
2023-03-25T21:01:02.773Z,7.53
2023-03-25T21:03:50.395Z,8.88
2023-03-25T21:06:35.986Z,18.00
2023-03-25T21:09:22.008Z,9.27
2023-03-25T21:12:08.211Z,3.97
2023-03-25T21:14:54.523Z,2.75
2023-03-25T21:17:40.947Z,2.03
2023-03-25T21:20:28.913Z,1.90
2023-03-25T21:23:14.777Z,2.13
2023-03-25T21:26:09.308Z,1.73
2023-03-25T21:28:56.909Z,1.10
2023-03-25T21:31:42.898Z,1.67
2023-03-25T21:34:30.299Z,1.30
2023-03-25T21:37:16.476Z,1.60
2023-03-25T21:40:02.763Z,1.50
2023-03-25T21:42:48.849Z,1.80
2023-03-25T21:45:35.404Z,1.55
2023-03-25T21:48:22.641Z,1.58
2023-03-25T21:51:14.429Z,1.70
2023-03-25T21:54:00.688Z,1.20
2023-03-25T21:56:51.949Z,1.40
2023-03-25T21:59:37.660Z,2.17
2023-03-25T22:02:25.645Z,1.70
2023-03-25T22:05:12.913Z,1.77
2023-03-25T22:07:59.102Z,2.05
2023-03-25T22:10:45.088Z,1.70
2023-03-25T22:13:30.818Z,2.40
2023-03-25T22:16:18.133Z,3.00
2023-03-25T22:19:04.645Z,2.85
2023-03-25T22:21:50.738Z,2.65
2023-03-25T22:24:37.063Z,2.42
2023-03-25T22:27:23.001Z,2.20
2023-03-25T22:30:09.408Z,3.00
2023-03-25T22:32:54.962Z,2.30
2023-03-25T22:35:41.119Z,2.40
2023-03-25T22:38:26.789Z,2.03
2023-03-25T22:41:15.443Z,2.35
2023-03-25T22:44:01.447Z,2.22
2023-03-25T22:46:49.023Z,2.20
2023-03-25T22:49:35.054Z,4.00
2023-03-25T22:52:21.025Z,2.45
2023-03-25T22:55:07.762Z,2.15
2023-03-25T22:57:53.914Z,1.90
2023-03-25T23:00:42.156Z,2.30
2023-03-25T23:03:36.148Z,2.22
2023-03-25T23:06:23.519Z,2.17
2023-03-25T23:09:10.028Z,3.47
2023-03-25T23:11:57.029Z,2.40
2023-03-25T23:14:48.198Z,2.05
2023-03-25T23:17:35.283Z,1.98
2023-03-25T23:20:22.343Z,1.92
2023-03-25T23:23:08.057Z,1.88
2023-03-25T23:26:27.594Z,1.75
2023-03-25T23:29:14.064Z,1.80
2023-03-25T23:32:00.472Z,1.58
2023-03-25T23:34:46.378Z,1.40
2023-03-25T23:37:34.003Z,1.48
2023-03-25T23:40:22.844Z,1.60
2023-03-25T23:43:08.826Z,1.40
2023-03-25T23:45:54.753Z,1.20
2023-03-25T23:48:41.142Z,1.35
2023-03-25T23:51:27.239Z,1.73
2023-03-25T23:54:15.393Z,1.70
2023-03-25T23:57:02.308Z,1.67
2023-03-25T23:59:48.198Z,2.40
